Time;durP1;ratioP1;P1;durP2;ratioP2;P2;SDS_P1;SDS_P2;PMS_P1;PMS_P2;Temp;Humidity;BMP_temperature;BMP_pressure;BME280_temperature;BME280_humidity;BME280_pressure;Samples;Min_cycle;Max_cycle;Signal;HPM_P1;HPM_P2
2022/11/14 00:00:52;;;;;;;29.50;12.93;;;;;;;7.64;100.00;101214.56;4944220;28;20588;-71
2022/11/14 00:03:19;;;;;;;28.67;12.87;;;;;;;7.58;100.00;101213.16;4944802;28;20228;-70
2022/11/14 00:05:46;;;;;;;29.00;13.00;;;;;;;7.59;100.00;101213.06;4944722;28;20232;-72
2022/11/14 00:08:18;;;;;;;30.63;12.77;;;;;;;7.58;100.00;101221.09;4946696;28;20228;-72
2022/11/14 00:10:45;;;;;;;28.50;13.37;;;;;;;7.71;100.00;101218.47;4949199;28;20303;-70
2022/11/14 00:13:13;;;;;;;29.17;13.53;;;;;;;7.74;100.00;101210.28;4942557;28;20274;-72
2022/11/14 00:15:39;;;;;;;29.83;13.03;;;;;;;7.71;100.00;101210.53;4945195;28;25096;-70
2022/11/14 00:18:06;;;;;;;26.17;13.00;;;;;;;7.77;100.00;101216.25;4958137;28;20322;-71
2022/11/14 00:20:32;;;;;;;29.17;13.20;;;;;;;7.62;100.00;101217.28;4943750;28;20224;-70
2022/11/14 00:22:59;;;;;;;28.17;13.90;;;;;;;7.61;100.00;101215.63;4945120;28;20231;-72
2022/11/14 00:25:25;;;;;;;26.13;13.27;;;;;;;7.70;100.00;101208.81;4946516;28;20235;-72
2022/11/14 00:27:55;;;;;;;28.10;12.63;;;;;;;7.74;100.00;101210.28;4947147;28;20221;-71
2022/11/14 00:30:22;;;;;;;27.17;12.60;;;;;;;7.73;100.00;101211.25;4948081;28;20234;-72
2022/11/14 00:32:48;;;;;;;24.73;12.20;;;;;;;7.76;100.00;101213.69;4946745;28;20304;-71
2022/11/14 00:35:15;;;;;;;24.90;12.77;;;;;;;7.66;100.00;101207.34;4948347;28;20319;-72
2022/11/14 00:37:41;;;;;;;24.47;12.00;;;;;;;7.60;100.00;101205.97;4947975;28;20239;-72
2022/11/14 00:40:08;;;;;;;23.17;11.93;;;;;;;7.68;100.00;101205.41;4946184;28;20709;-72
2022/11/14 00:42:35;;;;;;;28.93;12.40;;;;;;;7.62;100.00;101201.41;4946959;28;20315;-72
2022/11/14 00:45:01;;;;;;;23.87;11.97;;;;;;;7.56;100.00;101201.81;4947391;28;20220;-72
2022/11/14 00:47:28;;;;;;;26.30;12.87;;;;;;;7.52;100.00;101201.19;4948414;28;20252;-72
2022/11/14 00:49:54;;;;;;;25.40;12.00;;;;;;;7.55;100.00;101202.78;4944272;28;20602;-70
2022/11/14 00:52:20;;;;;;;26.20;12.90;;;;;;;7.64;100.00;101198.66;4945256;28;20232;-72
2022/11/14 00:54:47;;;;;;;27.07;12.97;;;;;;;7.71;100.00;101192.81;4943554;28;20270;-71
2022/11/14 00:57:13;;;;;;;28.93;12.97;;;;;;;7.62;100.00;101190.81;4941180;28;20303;-72
2022/11/14 00:59:40;;;;;;;32.67;13.27;;;;;;;7.51;100.00;101188.91;4942329;28;20228;-72
2022/11/14 01:02:06;;;;;;;27.90;13.50;;;;;;;7.63;100.00;101183.69;4943232;28;20236;-72
2022/11/14 01:04:33;;;;;;;27.87;12.90;;;;;;;7.74;100.00;101178.50;4945521;28;20251;-72
2022/11/14 01:06:59;;;;;;;26.90;13.03;;;;;;;7.66;100.00;101186.16;4944256;28;20235;-71
2022/11/14 01:09:26;;;;;;;30.33;13.83;;;;;;;7.50;100.00;101186.38;4940824;28;20225;-71
2022/11/14 01:11:52;;;;;;;31.63;13.90;;;;;;;7.41;100.00;101174.59;4943449;28;20235;-72
2022/11/14 01:14:19;;;;;;;32.60;13.00;;;;;;;7.47;100.00;101173.31;4942752;28;20221;-71
2022/11/14 01:16:46;;;;;;;26.67;13.17;;;;;;;7.47;100.00;101175.97;4943926;28;20224;-72
2022/11/14 01:19:12;;;;;;;27.00;12.70;;;;;;;7.35;100.00;101173.25;4942072;28;20228;-72
2022/11/14 01:21:39;;;;;;;31.10;13.57;;;;;;;7.30;100.00;101163.91;4944962;28;20682;-71
2022/11/14 01:24:05;;;;;;;30.80;13.37;;;;;;;7.32;100.00;101159.34;4942997;28;20228;-72
2022/11/14 01:26:32;;;;;;;27.67;13.03;;;;;;;7.40;100.00;101154.41;4944286;28;20245;-72
2022/11/14 01:28:58;;;;;;;27.60;13.13;;;;;;;7.46;100.00;101164.53;4943541;28;20233;-73
2022/11/14 01:31:25;;;;;;;27.10;13.40;;;;;;;7.53;100.00;101162.31;4943886;28;20255;-73
2022/11/14 01:33:52;;;;;;;31.13;12.97;;;;;;;7.48;100.00;101157.34;4944428;28;20224;-72
2022/11/14 01:36:20;;;;;;;30.57;14.37;;;;;;;7.53;100.00;101157.84;4945026;28;20232;-72
2022/11/14 01:38:51;;;;;;;29.83;14.57;;;;;;;7.38;100.00;101158.94;4943593;28;21208;-71
2022/11/14 01:41:17;;;;;;;35.33;14.57;;;;;;;7.33;100.00;101155.78;4942338;28;20236;-71
2022/11/14 01:43:44;;;;;;;32.17;14.40;;;;;;;7.31;100.00;101152.38;4954655;28;20228;-72
2022/11/14 01:46:18;;;;;;;29.43;14.10;;;;;;;7.43;100.00;101148.88;4942125;28;20228;-72
2022/11/14 01:48:50;;;;;;;30.93;14.27;;;;;;;7.40;100.00;101143.81;4941575;28;20235;-71
2022/11/14 01:51:28;;;;;;;30.90;15.07;;;;;;;7.42;100.00;101141.03;4941437;28;20228;-73
2022/11/14 01:53:57;;;;;;;34.27;14.97;;;;;;;7.34;100.00;101138.94;4942593;28;20229;-72
2022/11/14 01:56:27;;;;;;;35.20;15.37;;;;;;;7.32;100.00;101135.53;4933177;28;20386;-72
2022/11/14 01:58:59;;;;;;;33.20;15.30;;;;;;;7.36;100.00;101132.56;4946961;28;20228;-72
2022/11/14 02:01:28;;;;;;;35.00;16.23;;;;;;;7.37;100.00;101133.41;4941804;28;20229;-72
2022/11/14 02:03:56;;;;;;;34.57;16.10;;;;;;;7.35;100.00;101130.88;4941745;28;20559;-71
2022/11/14 02:06:25;;;;;;;33.07;16.27;;;;;;;7.30;100.00;101137.44;4941903;28;20257;-72
2022/11/14 02:08:52;;;;;;;35.20;16.37;;;;;;;7.22;100.00;101137.13;4942805;28;20259;-73
2022/11/14 02:11:19;;;;;;;34.03;16.87;;;;;;;7.17;100.00;101126.88;4957239;28;20840;-72
2022/11/14 02:13:45;;;;;;;32.80;15.57;;;;;;;7.31;100.00;101131.22;4942917;28;20227;-72
2022/11/14 02:16:12;;;;;;;37.10;17.27;;;;;;;7.36;100.00;101129.06;4942735;28;20458;-71
2022/11/14 02:18:38;;;;;;;38.60;17.33;;;;;;;7.41;100.00;101124.31;4943207;28;20252;-72
2022/11/14 02:21:05;;;;;;;38.50;17.67;;;;;;;7.27;100.00;101122.63;4940493;28;20235;-72
2022/11/14 02:23:32;;;;;;;37.17;17.00;;;;;;;7.14;100.00;101121.75;4941248;28;20231;-70
2022/11/14 02:25:58;;;;;;;39.30;16.50;;;;;;;7.20;100.00;101124.00;4941608;28;20695;-73
2022/11/14 02:28:26;;;;;;;39.10;17.17;;;;;;;7.18;100.00;101124.09;4943473;28;20251;-71
2022/11/14 02:30:54;;;;;;;35.43;16.30;;;;;;;7.28;100.00;101119.03;4941646;28;20228;-69
2022/11/14 02:33:20;;;;;;;38.90;17.87;;;;;;;7.16;100.00;101112.78;4942010;28;20232;-73
2022/11/14 02:35:47;;;;;;;35.40;16.33;;;;;;;7.10;100.00;101113.19;4944141;28;20228;-72
2022/11/14 02:38:13;;;;;;;41.00;18.47;;;;;;;7.14;100.00;101109.41;4946426;28;20224;-71
2022/11/14 02:40:40;;;;;;;36.63;17.30;;;;;;;7.25;100.00;101113.94;4805793;28;20230;-72
2022/11/14 02:43:06;;;;;;;41.83;18.00;;;;;;;7.26;100.00;101106.81;4164749;28;20242;-72
2022/11/14 02:45:33;;;;;;;41.93;18.33;;;;;;;7.05;100.00;101109.19;4159888;28;20245;-73
2022/11/14 02:47:59;;;;;;;41.73;18.67;;;;;;;6.94;100.00;101109.91;4150836;28;20244;-73
2022/11/14 02:50:26;;;;;;;40.80;17.60;;;;;;;7.08;100.00;101107.16;4155764;28;20298;-70
2022/11/14 02:52:52;;;;;;;43.70;18.43;;;;;;;7.17;100.00;101103.88;4156429;28;20239;-72
2022/11/14 02:55:20;;;;;;;39.37;18.70;;;;;;;7.27;100.00;101097.94;4153561;28;21318;-71
2022/11/14 02:57:46;;;;;;;39.70;18.50;;;;;;;7.30;100.00;101095.91;4149226;28;25233;-71
2022/11/14 03:00:13;;;;;;;39.83;18.63;;;;;;;7.24;100.00;101091.06;4160811;28;20239;-70
2022/11/14 03:02:41;;;;;;;40.80;19.33;;;;;;;7.18;100.00;101094.13;4156988;28;25630;-70
2022/11/14 03:05:07;;;;;;;40.13;18.73;;;;;;;7.07;100.00;101094.91;4150444;28;20631;-71
2022/11/14 03:07:33;;;;;;;41.83;18.03;;;;;;;7.07;100.00;101092.25;4154373;28;20265;-71
2022/11/14 03:10:01;;;;;;;41.87;19.27;;;;;;;7.05;100.00;101091.50;4159957;28;20238;-70
2022/11/14 03:12:27;;;;;;;37.60;18.07;;;;;;;7.14;100.00;101093.53;4163859;28;20293;-71
2022/11/14 03:14:54;;;;;;;38.87;18.77;;;;;;;7.11;100.00;101085.78;4151859;28;20409;-70
2022/11/14 03:17:23;;;;;;;42.07;18.73;;;;;;;7.06;100.00;101087.06;4160040;28;21178;-73
2022/11/14 03:19:50;;;;;;;38.73;17.63;;;;;;;7.19;100.00;101088.75;4164996;28;20243;-70
2022/11/14 03:22:16;;;;;;;33.33;16.40;;;;;;;7.06;100.00;101079.97;4152744;28;20755;-70
2022/11/14 03:24:43;;;;;;;34.37;17.10;;;;;;;7.06;100.00;101079.13;4157957;28;20322;-70
2022/11/14 03:27:09;;;;;;;35.43;16.20;;;;;;;7.05;100.00;101075.63;4161230;28;25998;-73
2022/11/14 03:29:36;;;;;;;33.40;16.77;;;;;;;6.99;100.00;101078.69;4159609;28;20234;-71
2022/11/14 03:32:02;;;;;;;32.70;15.90;;;;;;;7.09;100.00;101079.72;4162256;28;20239;-72
2022/11/14 03:34:29;;;;;;;33.03;15.53;;;;;;;7.09;100.00;101077.09;4157262;28;20274;-70
2022/11/14 03:36:55;;;;;;;32.23;14.37;;;;;;;7.03;100.00;101077.53;4151913;28;20242;-70
2022/11/14 03:39:22;;;;;;;30.33;14.57;;;;;;;6.98;100.00;101080.50;4164177;28;21764;-71
2022/11/14 03:41:48;;;;;;;31.27;14.93;;;;;;;6.86;100.00;101072.53;4155780;28;20247;-70
2022/11/14 03:44:15;;;;;;;31.93;14.70;;;;;;;6.94;100.00;101079.00;4158481;28;20239;-71
2022/11/14 03:46:41;;;;;;;27.60;13.13;;;;;;;6.88;100.00;101073.28;4152297;28;20238;-72
2022/11/14 03:49:08;;;;;;;33.17;14.20;;;;;;;6.98;100.00;101069.06;4165583;28;21096;-71
2022/11/14 03:51:34;;;;;;;28.77;13.50;;;;;;;6.99;100.00;101068.09;4158318;28;20536;-71
2022/11/14 03:54:01;;;;;;;26.60;13.33;;;;;;;7.03;100.00;101066.09;4164330;28;20305;-71
2022/11/14 03:56:27;;;;;;;30.40;13.87;;;;;;;7.05;100.00;101066.84;4159762;28;20248;-72
2022/11/14 03:58:54;;;;;;;25.30;12.77;;;;;;;7.04;100.00;101068.63;4155159;28;20319;-71
2022/11/14 04:01:20;;;;;;;28.97;13.60;;;;;;;7.03;100.00;101066.09;4155473;28;22990;-72
2022/11/14 04:03:47;;;;;;;29.87;13.60;;;;;;;7.01;100.00;101068.00;4157918;28;20262;-69
2022/11/14 04:06:14;;;;;;;21.37;11.00;;;;;;;7.04;100.00;101062.50;4163999;28;20257;-71
2022/11/14 04:08:40;;;;;;;23.07;11.40;;;;;;;7.01;100.00;101058.25;4157237;28;20524;-71
2022/11/14 04:11:07;;;;;;;27.30;11.87;;;;;;;7.09;100.00;101058.56;4157978;28;20262;-71
2022/11/14 04:13:33;;;;;;;19.73;10.87;;;;;;;7.10;100.00;101054.97;4157930;28;20344;-70
2022/11/14 04:16:00;;;;;;;19.27;10.37;;;;;;;7.03;100.00;101052.88;4157757;28;20224;-71
2022/11/14 04:18:26;;;;;;;23.57;10.00;;;;;;;6.97;100.00;101051.47;4161265;28;21793;-75
2022/11/14 04:20:54;;;;;;;21.53;9.67;;;;;;;7.00;100.00;101056.59;4175892;28;21221;-72
2022/11/14 04:23:20;;;;;;;19.20;9.17;;;;;;;6.87;100.00;101045.16;4160562;28;20263;-70
2022/11/14 04:25:47;;;;;;;20.43;9.73;;;;;;;6.79;100.00;101050.09;4160592;28;20266;-69
2022/11/14 04:28:13;;;;;;;21.00;10.60;;;;;;;6.80;100.00;101043.88;4165781;28;20246;-71
2022/11/14 04:30:40;;;;;;;19.57;10.57;;;;;;;6.96;100.00;101050.66;4157379;28;21732;-69
2022/11/14 04:33:07;;;;;;;20.17;10.50;;;;;;;7.00;100.00;101040.72;4154054;28;20401;-70
2022/11/14 04:35:33;;;;;;;22.37;10.27;;;;;;;6.97;100.00;101040.91;4161521;28;20349;-71
2022/11/14 04:38:00;;;;;;;23.00;11.20;;;;;;;7.04;100.00;101039.53;4156535;28;20255;-70
2022/11/14 04:40:26;;;;;;;23.17;10.53;;;;;;;7.12;100.00;101033.72;4155219;28;20240;-69
2022/11/14 04:42:52;;;;;;;19.73;10.20;;;;;;;7.05;100.00;101035.94;4156294;28;21623;-71
2022/11/14 04:45:20;;;;;;;17.80;10.33;;;;;;;7.14;100.00;101040.59;4170587;28;21634;-70
2022/11/14 04:47:47;;;;;;;20.37;10.10;;;;;;;7.08;100.00;101043.66;4158356;28;20239;-72
2022/11/14 04:50:13;;;;;;;18.97;10.13;;;;;;;6.91;100.00;101038.69;4157641;28;20262;-70
2022/11/14 04:52:39;;;;;;;20.63;10.47;;;;;;;6.95;100.00;101034.88;4156649;28;21769;-73
2022/11/14 04:55:06;;;;;;;21.63;11.20;;;;;;;6.89;100.00;101032.66;4155348;28;20234;-71
2022/11/14 04:57:33;;;;;;;19.27;9.10;;;;;;;6.98;100.00;101027.56;4152033;28;20244;-71
2022/11/14 04:59:59;;;;;;;16.73;9.10;;;;;;;6.92;100.00;101028.00;4177372;28;22213;-70
2022/11/14 05:02:26;;;;;;;15.00;8.03;;;;;;;7.00;100.00;101030.13;4159402;28;20417;-70
2022/11/14 05:04:52;;;;;;;13.23;7.93;;;;;;;6.88;100.00;101031.81;4165563;28;20408;-70
2022/11/14 05:07:19;;;;;;;15.17;7.47;;;;;;;6.75;100.00;101031.81;4156088;28;20235;-70
2022/11/14 05:09:46;;;;;;;16.17;8.30;;;;;;;6.86;100.00;101032.84;4151952;28;20241;-71
2022/11/14 05:12:12;;;;;;;18.57;8.37;;;;;;;6.82;100.00;101026.09;4164969;28;20244;-70
2022/11/14 05:14:38;;;;;;;16.10;8.07;;;;;;;6.86;100.00;101027.56;4161518;28;21832;-69
2022/11/14 05:17:05;;;;;;;15.87;8.23;;;;;;;6.95;100.00;101019.88;4160122;28;20756;-70
2022/11/14 05:19:32;;;;;;;19.07;8.53;;;;;;;6.98;100.00;101021.44;4155095;28;20654;-71
2022/11/14 05:21:58;;;;;;;14.37;8.50;;;;;;;7.03;100.00;101027.25;4166036;28;21848;-70
2022/11/14 05:24:26;;;;;;;19.60;8.97;;;;;;;6.91;100.00;101028.97;4167730;28;20239;-70
2022/11/14 05:26:52;;;;;;;20.10;9.23;;;;;;;6.90;100.00;101034.34;4156060;28;20241;-70
2022/11/14 05:29:19;;;;;;;19.83;9.80;;;;;;;6.90;100.00;101026.41;4153209;28;20274;-71
2022/11/14 05:31:46;;;;;;;17.77;9.07;;;;;;;6.94;100.00;101025.25;4152702;28;22083;-70
2022/11/14 05:34:12;;;;;;;18.23;8.70;;;;;;;7.02;100.00;101017.59;4154717;28;21730;-71
2022/11/14 05:36:39;;;;;;;19.33;9.17;;;;;;;6.94;100.00;101019.97;4160079;28;21962;-70
2022/11/14 05:39:05;;;;;;;22.03;9.77;;;;;;;6.99;100.00;101025.78;4159311;28;20235;-70
2022/11/14 05:41:32;;;;;;;18.90;8.97;;;;;;;7.04;100.00;101017.50;4158570;28;20314;-70
2022/11/14 05:43:58;;;;;;;15.37;8.00;;;;;;;7.00;100.00;101019.53;4155162;28;20245;-71
2022/11/14 05:46:25;;;;;;;17.47;8.83;;;;;;;6.85;100.00;101012.66;4169072;28;20346;-72
2022/11/14 05:48:51;;;;;;;14.67;7.83;;;;;;;6.97;100.00;101020.56;4174615;28;20616;-70
2022/11/14 05:51:18;;;;;;;16.50;8.77;;;;;;;6.83;100.00;101023.34;4150841;28;20239;-72
2022/11/14 05:53:45;;;;;;;16.87;8.20;;;;;;;6.68;100.00;101022.59;4159280;28;21299;-69
2022/11/14 05:56:12;;;;;;;25.70;10.03;;;;;;;6.72;100.00;101021.44;4168014;28;23403;-75
2022/11/14 05:58:39;;;;;;;19.07;10.20;;;;;;;6.73;100.00;101027.59;4151822;28;20247;-70
2022/11/14 06:01:14;;;;;;;21.00;9.60;;;;;;;6.74;100.00;101031.91;4158950;28;20815;-70
2022/11/14 06:03:43;;;;;;;19.33;9.40;;;;;;;6.81;100.00;101024.41;4154203;28;22575;-70
2022/11/14 06:06:13;;;;;;;16.77;8.73;;;;;;;6.89;100.00;101032.66;4177384;28;20344;-73
2022/11/14 06:08:39;;;;;;;18.43;8.67;;;;;;;6.93;100.00;101028.84;4158206;28;20348;-72
2022/11/14 06:11:12;;;;;;;18.80;9.20;;;;;;;6.90;100.00;101027.25;4169688;28;20226;-70
2022/11/14 06:13:39;;;;;;;17.80;9.47;;;;;;;6.96;100.00;101033.94;4159355;28;20306;-71
2022/11/14 06:16:09;;;;;;;21.50;9.33;;;;;;;6.86;100.00;101033.72;4160381;28;20303;-70
2022/11/14 06:18:37;;;;;;;21.13;10.23;;;;;;;6.84;100.00;101034.78;4161659;28;22449;-70
2022/11/14 06:21:10;;;;;;;18.43;9.30;;;;;;;6.81;100.00;101027.03;4164206;28;20658;-72
2022/11/14 06:23:37;;;;;;;23.50;10.23;;;;;;;6.83;100.00;101031.28;4149282;28;20379;-71
2022/11/14 06:26:06;;;;;;;19.83;9.30;;;;;;;6.82;100.00;101032.25;4162022;28;20347;-71
2022/11/14 06:28:33;;;;;;;19.47;9.50;;;;;;;6.83;100.00;101033.09;4169381;28;21053;-70
2022/11/14 06:31:00;;;;;;;18.03;9.00;;;;;;;6.94;100.00;101038.47;4150915;28;20412;-64
2022/11/14 06:33:29;;;;;;;16.67;9.10;;;;;;;6.90;100.00;101037.00;4164777;28;20234;-71
2022/11/14 06:36:01;;;;;;;17.87;9.07;;;;;;;6.98;100.00;101034.66;4177251;28;20841;-68
2022/11/14 06:38:30;;;;;;;17.97;8.93;;;;;;;6.80;100.00;101042.06;4150086;28;20242;-72
2022/11/14 06:41:05;;;;;;;18.40;8.20;;;;;;;6.89;100.00;101044.09;4170352;28;20238;-72
2022/11/14 06:43:32;;;;;;;15.47;8.13;;;;;;;6.90;100.00;101047.56;4167247;28;20233;-71
2022/11/14 06:45:59;;;;;;;15.73;8.30;;;;;;;6.92;100.00;101041.22;4160957;28;20230;-71
2022/11/14 06:48:26;;;;;;;17.43;7.60;;;;;;;6.93;100.00;101035.00;4148114;28;23065;-69
2022/11/14 06:50:54;;;;;;;20.57;8.43;;;;;;;6.89;100.00;101044.09;4208435;28;20310;-70
2022/11/14 06:53:21;;;;;;;13.47;7.60;;;;;;;7.00;100.00;101046.00;4192175;28;20240;-63
2022/11/14 06:56:02;;;;;;;15.67;6.90;;;;;;;6.94;100.00;101041.13;4166604;28;21554;-71
2022/11/14 06:58:31;;;;;;;15.17;7.60;;;;;;;6.90;100.00;101047.56;4179741;28;20255;-69
2022/11/14 07:01:05;;;;;;;16.47;8.23;;;;;;;6.84;100.00;101046.22;4192140;28;20307;-69
2022/11/14 07:03:33;;;;;;;16.10;7.97;;;;;;;6.91;100.00;101046.63;4208257;28;20885;-68
2022/11/14 07:06:00;;;;;;;15.57;8.47;;;;;;;6.96;100.00;101039.22;4201886;28;20242;-69
2022/11/14 07:08:27;;;;;;;12.33;6.67;;;;;;;7.03;100.00;101050.22;4173137;28;20248;-69
2022/11/14 07:11:09;;;;;;;13.87;7.97;;;;;;;6.88;100.00;101046.81;4190583;28;20238;-72
2022/11/14 07:13:36;;;;;;;13.90;7.70;;;;;;;6.86;100.00;101040.78;4242553;28;20255;-71
2022/11/14 07:16:04;;;;;;;13.53;7.97;;;;;;;6.79;100.00;101039.53;4229546;28;25775;-69
2022/11/14 07:18:32;;;;;;;13.73;7.20;;;;;;;6.79;100.00;101039.53;4195578;28;20271;-68
2022/11/14 07:21:01;;;;;;;14.90;8.27;;;;;;;6.93;100.00;101036.78;4180725;28;20457;-68
2022/11/14 07:23:28;;;;;;;15.07;8.00;;;;;;;7.00;100.00;101040.72;4202910;28;21951;-68
2022/11/14 07:25:55;;;;;;;15.10;8.20;;;;;;;6.87;100.00;101040.69;4188342;28;20435;-73
2022/11/14 07:28:22;;;;;;;14.60;7.63;;;;;;;6.91;100.00;101041.34;4172023;28;21912;-70
2022/11/14 07:30:48;;;;;;;14.93;7.50;;;;;;;6.95;100.00;101040.16;4243533;28;21671;-74
2022/11/14 07:33:15;;;;;;;13.23;6.80;;;;;;;6.92;100.00;101030.63;4212432;28;20253;-68
2022/11/14 07:35:41;;;;;;;10.03;5.70;;;;;;;6.85;100.00;101036.47;4200473;28;20661;-69
2022/11/14 07:38:08;;;;;;;8.50;5.53;;;;;;;6.86;100.00;101032.84;4208379;28;23273;-72
2022/11/14 07:40:35;;;;;;;10.93;5.43;;;;;;;6.82;100.00;101031.41;4178768;28;20500;-73
2022/11/14 07:43:01;;;;;;;10.10;5.87;;;;;;;6.79;100.00;101028.94;4194549;28;20255;-70
2022/11/14 07:45:29;;;;;;;8.30;5.40;;;;;;;6.85;100.00;101025.88;4187866;28;20433;-71
2022/11/14 07:47:57;;;;;;;11.87;6.33;;;;;;;6.92;100.00;101032.44;4200152;28;21937;-71
2022/11/14 07:50:24;;;;;;;10.30;5.60;;;;;;;6.91;100.00;101033.41;4184042;28;20274;-73
2022/11/14 07:52:52;;;;;;;11.73;5.93;;;;;;;6.86;100.00;101032.84;4170084;28;20800;-79
2022/11/14 07:55:19;;;;;;;11.73;6.23;;;;;;;6.85;100.00;101031.19;4169518;28;20236;-71
2022/11/14 07:57:46;;;;;;;10.03;5.83;;;;;;;6.90;100.00;101029.06;4181657;28;20246;-69
2022/11/14 08:00:15;;;;;;;13.77;6.80;;;;;;;6.79;100.00;101021.00;4183986;28;20244;-71
2022/11/14 08:02:42;;;;;;;11.33;6.30;;;;;;;6.82;100.00;101026.09;4188990;28;21657;-69
2022/11/14 08:05:09;;;;;;;12.17;6.40;;;;;;;6.90;100.00;101021.97;4170716;28;21789;-69
2022/11/14 08:07:35;;;;;;;15.13;7.10;;;;;;;6.96;100.00;101026.00;4162650;28;21874;-72
2022/11/14 08:10:02;;;;;;;15.20;7.70;;;;;;;6.81;100.00;101027.88;4188733;28;20246;-70
2022/11/14 08:12:29;;;;;;;17.93;7.50;;;;;;;6.78;100.00;101019.34;4188264;28;20232;-72
2022/11/14 08:14:55;;;;;;;11.73;7.13;;;;;;;6.75;100.00;101010.66;4163904;28;20227;-70
2022/11/14 08:17:22;;;;;;;12.00;6.87;;;;;;;6.83;100.00;101017.22;4165596;28;20310;-67
2022/11/14 08:19:49;;;;;;;15.50;6.83;;;;;;;6.81;100.00;101016.47;4168372;28;20232;-69
2022/11/14 08:22:15;;;;;;;10.67;6.53;;;;;;;6.76;100.00;101014.97;4166028;28;20230;-73
2022/11/14 08:24:42;;;;;;;12.77;6.50;;;;;;;6.82;100.00;101010.25;4156221;28;20236;-72
2022/11/14 08:27:09;;;;;;;9.63;6.13;;;;;;;6.87;100.00;101010.75;4171887;28;25593;-69
2022/11/14 08:29:35;;;;;;;12.90;6.13;;;;;;;6.98;100.00;101010.88;4164078;28;20261;-72
2022/11/14 08:32:02;;;;;;;12.27;6.47;;;;;;;6.99;100.00;101007.25;4186684;28;20241;-73
2022/11/14 08:34:29;;;;;;;10.87;6.40;;;;;;;7.09;100.00;101008.28;4162336;28;20233;-71
2022/11/14 08:36:56;;;;;;;14.43;6.43;;;;;;;7.06;100.00;101003.22;4173709;28;20643;-73
2022/11/14 08:39:23;;;;;;;13.23;6.93;;;;;;;7.05;100.00;101001.53;4191748;28;21461;-74
2022/11/14 08:41:50;;;;;;;14.13;6.87;;;;;;;7.07;100.00;101002.28;4196203;28;20249;-74
2022/11/14 08:44:16;;;;;;;13.33;6.23;;;;;;;7.17;100.00;101002.47;4170983;28;20420;-72
2022/11/14 08:46:43;;;;;;;16.00;7.23;;;;;;;7.16;100.00;100998.97;4174455;28;20234;-72
2022/11/14 08:49:09;;;;;;;12.13;6.13;;;;;;;7.25;100.00;101000.09;4177519;28;20314;-73
2022/11/14 08:51:36;;;;;;;10.03;6.43;;;;;;;7.07;100.00;100993.47;4181573;28;20656;-76
2022/11/14 08:54:02;;;;;;;11.23;6.57;;;;;;;7.14;100.00;100989.44;4181095;28;24950;-73
2022/11/14 08:56:29;;;;;;;13.37;7.27;;;;;;;7.27;100.00;100986.75;4176494;28;21518;-72
2022/11/14 08:58:56;;;;;;;22.50;7.23;;;;;;;7.04;100.00;100988.41;4184877;28;20271;-76
2022/11/14 09:01:22;;;;;;;24.60;6.27;;;;;;;6.83;100.00;100994.25;4179262;28;20601;-71
2022/11/14 09:03:49;;;;;;;12.57;5.30;;;;;;;6.95;100.00;100992.53;4157848;28;20239;-56
2022/11/14 09:06:22;;;;;;;7.93;4.70;;;;;;;7.08;100.00;100988.06;4169284;28;20235;-72
2022/11/14 09:08:48;;;;;;;7.80;4.63;;;;;;;7.04;100.00;100978.66;4177998;28;22188;-72
2022/11/14 09:11:15;;;;;;;8.53;4.97;;;;;;;7.17;100.00;100981.28;4170989;28;20247;-77
2022/11/14 09:13:45;;;;;;;8.40;4.63;;;;;;;7.19;100.00;100974.94;4165924;28;20239;-74
2022/11/14 09:16:11;;;;;;;10.13;5.77;;;;;;;7.18;100.00;100972.38;4173326;28;20560;-73
2022/11/14 09:18:38;;;;;;;8.90;5.53;;;;;;;7.20;100.00;100967.81;4175628;28;20984;-76
2022/11/14 09:21:07;;;;;;;11.67;6.60;;;;;;;7.10;100.00;100962.34;4164043;28;21003;-75
2022/11/14 09:23:34;;;;;;;11.37;6.93;;;;;;;7.19;100.00;100959.06;4161450;28;20246;-75
2022/11/14 09:26:07;;;;;;;11.03;7.47;;;;;;;7.19;100.00;100968.78;4180273;28;20231;-71
2022/11/14 09:28:35;;;;;;;12.67;7.67;;;;;;;7.16;100.00;100956.63;4182879;28;20233;-72
2022/11/14 09:31:06;;;;;;;15.57;8.50;;;;;;;7.05;100.00;100956.56;4170178;28;22016;-72
2022/11/14 09:33:33;;;;;;;13.27;7.87;;;;;;;7.26;100.00;100961.22;4166568;28;21818;-74
2022/11/14 09:36:05;;;;;;;13.73;7.97;;;;;;;7.13;100.00;100962.13;4169050;28;21677;-70
2022/11/14 09:38:33;;;;;;;20.00;8.87;;;;;;;7.16;100.00;100956.63;4178586;28;20239;-74
2022/11/14 09:41:44;;;;;;;14.23;8.13;;;;;;;7.04;100.00;100956.66;4168495;28;20243;-75
2022/11/14 09:44:20;;;;;;;14.17;8.60;;;;;;;7.08;100.00;100948.38;4157029;28;20408;-73
2022/11/14 09:47:01;;;;;;;13.90;8.30;;;;;;;7.03;100.00;100945.22;4161726;28;25353;-71
2022/11/14 09:49:37;;;;;;;11.87;7.13;;;;;;;6.95;100.00;100959.00;4171244;28;23690;-72
2022/11/14 09:52:12;;;;;;;12.60;7.37;;;;;;;6.92;100.00;100956.56;4157454;28;21651;-71
2022/11/14 09:54:51;;;;;;;11.60;7.37;;;;;;;7.02;100.00;100951.44;4177521;28;20238;-75
2022/11/14 09:57:19;;;;;;;14.00;8.33;;;;;;;7.04;100.00;100952.19;4170555;28;21762;-71
2022/11/14 09:59:46;;;;;;;15.90;7.60;;;;;;;7.00;100.00;100945.44;4157966;28;20613;-73
2022/11/14 10:02:22;;;;;;;11.60;7.23;;;;;;;7.14;100.00;100949.72;4184726;28;20231;-73
2022/11/14 10:05:30;;;;;;;16.63;8.27;;;;;;;7.01;100.00;100947.13;4179327;28;20243;-73
2022/11/14 10:08:44;;;;;;;15.43;8.40;;;;;;;7.07;100.00;100946.72;4188504;28;20239;-70
2022/11/14 10:11:32;;;;;;;12.17;6.87;;;;;;;7.11;100.00;100942.03;4176164;28;20243;-70
2022/11/14 10:14:34;;;;;;;10.67;6.53;;;;;;;7.14;100.00;100947.94;4161715;28;20250;-74
2022/11/14 10:17:18;;;;;;;10.70;6.47;;;;;;;7.13;100.00;100940.94;4193841;28;20262;-74
2022/11/14 10:20:08;;;;;;;12.00;7.47;;;;;;;7.17;100.00;100937.13;4178539;28;20232;-73
2022/11/14 10:22:46;;;;;;;11.43;6.93;;;;;;;7.10;100.00;100935.06;4182582;28;20408;-73
2022/11/14 10:25:34;;;;;;;14.83;7.50;;;;;;;6.96;100.00;100933.38;4193280;28;20258;-71
2022/11/14 10:28:20;;;;;;;19.37;8.10;;;;;;;6.97;100.00;100930.63;4202757;28;20247;-75
2022/11/14 10:31:18;;;;;;;14.43;7.93;;;;;;;7.01;100.00;100920.66;4180846;28;20317;-72
2022/11/14 10:33:55;;;;;;;13.10;7.90;;;;;;;7.00;100.00;100918.13;4250553;28;21739;-71
2022/11/14 10:36:43;;;;;;;16.37;8.47;;;;;;;7.08;100.00;100919.28;4200176;28;21056;-68
2022/11/14 10:39:28;;;;;;;13.40;8.10;;;;;;;7.10;100.00;100917.38;4176660;28;20301;-73
2022/11/14 10:41:56;;;;;;;17.57;8.20;;;;;;;7.00;100.00;100916.34;4186421;28;22092;-73
2022/11/14 10:44:39;;;;;;;20.03;7.90;;;;;;;6.96;100.00;100906.94;4175446;28;22300;-74
2022/11/14 10:47:12;;;;;;;14.37;7.43;;;;;;;7.03;100.00;100905.53;4180833;28;25949;-73
2022/11/14 10:49:39;;;;;;;13.00;7.03;;;;;;;7.03;100.00;100904.69;4173500;28;21798;-72
2022/11/14 10:52:11;;;;;;;10.77;6.43;;;;;;;7.02;100.00;100903.00;4186651;28;20242;-70
2022/11/14 10:54:54;;;;;;;12.03;6.27;;;;;;;7.19;100.00;100903.47;4154772;28;21780;-50
2022/11/14 10:57:21;;;;;;;9.83;6.00;;;;;;;7.34;100.00;100898.00;4163611;28;20351;-69
2022/11/14 10:59:48;;;;;;;14.77;6.73;;;;;;;7.38;100.00;100892.38;4165853;28;20904;-66
2022/11/14 11:02:15;;;;;;;14.97;7.63;;;;;;;7.42;100.00;100892.13;4196236;28;20301;-66
2022/11/14 11:04:43;;;;;;;14.03;7.20;;;;;;;7.27;100.00;100878.22;4163742;28;24554;-71
2022/11/14 11:11:28;;;;;;;18.03;7.60;;;;;;;7.11;100.00;100878.50;4160264;28;20433;-71
2022/11/14 11:12:50;;;;;;;22.83;9.23;;;;;;;7.10;100.00;100867.09;4159848;28;20627;-72
2022/11/14 11:15:24;;;;;;;17.80;9.13;;;;;;;7.16;100.00;100868.41;4169123;28;20396;-71
2022/11/14 11:17:58;;;;;;;17.97;9.67;;;;;;;7.16;100.00;100855.19;4171773;28;20269;-70
2022/11/14 11:20:33;;;;;;;16.03;9.50;;;;;;;7.25;100.00;100858.97;4165050;28;20234;-70
2022/11/14 11:23:05;;;;;;;22.33;10.87;;;;;;;7.07;100.00;100851.44;4196179;28;20233;-70
2022/11/14 11:25:33;;;;;;;21.67;9.60;;;;;;;7.03;100.00;100851.78;4175275;28;21984;-74